createdAt,value
2023-02-13T00:01:36.432Z,73.98
2023-02-13T00:04:05.552Z,74.00
2023-02-13T00:06:33.926Z,74.09
2023-02-13T00:09:05.162Z,74.25
2023-02-13T00:11:35.364Z,73.96
2023-02-13T00:14:06.102Z,74.36
2023-02-13T00:16:35.075Z,74.31
2023-02-13T00:19:03.501Z,74.28
2023-02-13T00:21:32.609Z,74.48
2023-02-13T00:24:00.997Z,74.59
2023-02-13T00:26:31.131Z,74.53
2023-02-13T00:28:59.441Z,74.65
2023-02-13T00:31:29.892Z,74.84
2023-02-13T00:33:59.873Z,74.91
2023-02-13T00:36:29.603Z,75.13
2023-02-13T00:38:58.508Z,75.18
2023-02-13T00:41:26.952Z,75.11
2023-02-13T00:43:56.415Z,75.25
2023-02-13T00:46:24.843Z,75.30
2023-02-13T00:48:56.740Z,75.45
2023-02-13T00:51:27.126Z,75.37
2023-02-13T00:53:55.435Z,75.36
2023-02-13T00:56:25.547Z,75.46
2023-02-13T00:58:54.183Z,75.28
2023-02-13T01:01:22.531Z,75.47
2023-02-13T01:03:51.815Z,75.50
2023-02-13T01:06:21.523Z,75.30
2023-02-13T01:08:50.674Z,75.56
2023-02-13T01:11:19.302Z,75.56
2023-02-13T01:13:48.193Z,75.31
2023-02-13T01:16:18.194Z,75.25
2023-02-13T01:18:46.687Z,75.26
2023-02-13T01:21:18.785Z,75.28
2023-02-13T01:23:49.260Z,75.53
2023-02-13T01:26:24.268Z,75.85
2023-02-13T01:28:54.842Z,75.57
2023-02-13T01:31:24.350Z,75.36
2023-02-13T01:33:57.755Z,75.44
2023-02-13T01:36:26.867Z,75.32
2023-02-13T01:39:00.568Z,75.13
2023-02-13T01:41:29.520Z,74.85
2023-02-13T01:43:59.907Z,74.98
2023-02-13T01:46:32.669Z,74.97
2023-02-13T01:49:08.162Z,74.83
2023-02-13T01:51:37.583Z,75.01
2023-02-13T01:54:12.007Z,74.95
2023-02-13T01:56:43.286Z,75.01
2023-02-13T01:59:17.559Z,74.75
2023-02-13T02:01:46.598Z,74.60
2023-02-13T02:04:19.148Z,74.64
2023-02-13T02:06:50.855Z,74.67
2023-02-13T02:09:33.652Z,74.78
2023-02-13T02:12:07.285Z,74.67
2023-02-13T02:14:39.363Z,74.69
2023-02-13T02:17:10.065Z,74.71
2023-02-13T02:19:43.534Z,74.75
2023-02-13T02:23:04.366Z,74.62
2023-02-13T02:26:10.409Z,74.71
2023-02-13T02:29:33.608Z,74.65
2023-02-13T02:32:18.706Z,74.63
2023-02-13T02:35:03.658Z,74.57
2023-02-13T02:37:46.794Z,74.40
2023-02-13T02:40:26.588Z,74.47
2023-02-13T02:43:15.035Z,74.52
2023-02-13T02:45:54.144Z,74.62
2023-02-13T02:48:50.209Z,74.56
2023-02-13T02:51:27.476Z,74.67
2023-02-13T02:54:26.853Z,74.64
2023-02-13T02:57:00.396Z,74.49
2023-02-13T02:59:51.696Z,74.43
2023-02-13T03:02:38.626Z,74.45
2023-02-13T03:05:37.348Z,74.29
2023-02-13T03:08:06.620Z,74.09
2023-02-13T03:10:57.033Z,74.43
2023-02-13T03:13:40.165Z,74.32
2023-02-13T03:16:34.050Z,74.54
2023-02-13T03:19:34.805Z,74.66
2023-02-13T03:22:19.458Z,75.03
2023-02-13T03:24:59.501Z,75.29
2023-02-13T03:27:58.536Z,75.23
2023-02-13T03:30:36.879Z,75.66
2023-02-13T03:33:19.417Z,75.53
2023-02-13T03:36:13.034Z,75.74
2023-02-13T03:38:48.651Z,75.70
2023-02-13T03:41:24.875Z,75.66
2023-02-13T03:44:12.091Z,75.79
2023-02-13T03:46:44.180Z,75.96
2023-02-13T03:49:36.527Z,75.88
2023-02-13T03:52:09.212Z,75.91
2023-02-13T03:55:02.973Z,75.97
2023-02-13T03:57:53.055Z,75.75
2023-02-13T04:00:22.406Z,75.84
2023-02-13T04:02:58.644Z,75.86
2023-02-13T04:05:33.382Z,75.94
2023-02-13T04:08:02.652Z,76.00
2023-02-13T04:10:37.589Z,75.94
2023-02-13T04:13:15.007Z,76.05
2023-02-13T04:15:51.148Z,75.97
2023-02-13T04:18:23.953Z,76.03
2023-02-13T04:20:53.757Z,76.23
2023-02-13T04:23:23.048Z,76.30
2023-02-13T04:25:57.369Z,76.52
2023-02-13T04:28:26.674Z,76.28
2023-02-13T04:30:56.334Z,76.21
2023-02-13T04:33:24.961Z,76.14
2023-02-13T04:35:53.609Z,76.32
2023-02-13T04:38:23.043Z,76.46
2023-02-13T04:40:52.717Z,76.71
2023-02-13T04:43:22.052Z,76.42
2023-02-13T04:45:51.702Z,76.64
2023-02-13T04:48:20.082Z,76.56
2023-02-13T04:50:49.716Z,76.49
2023-02-13T04:53:18.097Z,76.51
2023-02-13T04:55:47.649Z,76.65
2023-02-13T04:58:17.766Z,76.95
2023-02-13T05:00:46.256Z,76.57
2023-02-13T05:03:15.685Z,76.56
2023-02-13T05:05:44.689Z,76.60
2023-02-13T05:08:13.948Z,76.82
2023-02-13T05:10:42.738Z,76.83
2023-02-13T05:13:12.047Z,76.80
2023-02-13T05:15:42.575Z,76.96
2023-02-13T05:18:11.458Z,76.87
2023-02-13T05:20:41.213Z,77.05
2023-02-13T05:23:23.045Z,76.98
2023-02-13T05:25:52.221Z,77.15
2023-02-13T05:28:34.589Z,77.21
2023-02-13T05:31:05.775Z,77.06
2023-02-13T05:33:34.188Z,77.04
2023-02-13T05:36:03.120Z,76.98
2023-02-13T05:38:31.520Z,76.92
2023-02-13T05:41:00.964Z,76.99
2023-02-13T05:43:29.976Z,76.82
2023-02-13T05:46:08.974Z,76.74
2023-02-13T05:48:37.452Z,76.52
2023-02-13T05:51:08.315Z,76.73
2023-02-13T05:53:36.846Z,76.72
2023-02-13T05:56:07.005Z,76.73
2023-02-13T05:58:36.258Z,76.53
2023-02-13T06:01:07.005Z,76.78
2023-02-13T06:03:36.499Z,76.80
2023-02-13T06:06:05.178Z,77.05
2023-02-13T06:08:34.987Z,76.90
2023-02-13T06:11:03.937Z,76.92
2023-02-13T06:13:32.340Z,76.73
2023-02-13T06:16:01.129Z,76.70
2023-02-13T06:18:32.050Z,76.88
2023-02-13T06:21:01.231Z,76.78
2023-02-13T06:23:29.841Z,76.59
2023-02-13T06:25:58.309Z,76.65
2023-02-13T06:28:26.629Z,76.42
2023-02-13T06:30:56.130Z,76.43
2023-02-13T06:33:24.946Z,76.41
2023-02-13T06:35:55.329Z,76.06
2023-02-13T06:38:24.368Z,76.22
2023-02-13T06:40:54.058Z,76.36
2023-02-13T06:43:22.418Z,76.34
2023-02-13T06:45:51.861Z,76.33
2023-02-13T06:48:20.694Z,76.23
2023-02-13T06:50:49.033Z,76.21
2023-02-13T06:53:18.911Z,76.19
2023-02-13T06:55:48.020Z,76.13
2023-02-13T06:58:16.342Z,75.89
2023-02-13T07:00:46.075Z,76.03
2023-02-13T07:03:15.109Z,76.03
2023-02-13T07:05:44.200Z,75.98
2023-02-13T07:08:15.133Z,75.91
2023-02-13T07:10:45.058Z,75.83
2023-02-13T07:13:13.414Z,75.65
2023-02-13T07:15:42.795Z,75.68
2023-02-13T07:18:14.693Z,75.64
2023-02-13T07:20:43.007Z,75.49
2023-02-13T07:23:11.967Z,75.31
2023-02-13T07:25:40.288Z,75.40
2023-02-13T07:28:11.188Z,75.32
2023-02-13T07:30:39.661Z,75.28
2023-02-13T07:33:08.050Z,75.26
2023-02-13T07:35:37.711Z,75.08
2023-02-13T07:38:06.578Z,75.12
2023-02-13T07:40:34.928Z,75.15
2023-02-13T07:43:03.328Z,75.04
2023-02-13T07:45:33.007Z,74.96
2023-02-13T07:48:02.699Z,74.95
2023-02-13T07:50:31.175Z,74.94
2023-02-13T07:53:01.756Z,74.63
2023-02-13T07:55:31.195Z,74.78
2023-02-13T07:58:01.480Z,74.42
2023-02-13T08:00:29.900Z,74.55
2023-02-13T08:03:01.817Z,74.54
2023-02-13T08:05:32.142Z,74.45
2023-02-13T08:08:00.549Z,74.40
2023-02-13T08:10:46.317Z,74.42
2023-02-13T08:13:17.322Z,74.54
2023-02-13T08:15:45.662Z,74.52
2023-02-13T08:18:16.253Z,74.44
2023-02-13T08:20:45.439Z,74.32
2023-02-13T08:23:14.847Z,74.30
2023-02-13T08:25:43.257Z,74.22
2023-02-13T08:28:11.753Z,74.37
2023-02-13T08:30:40.721Z,73.95
2023-02-13T08:33:10.014Z,74.16
2023-02-13T08:35:39.672Z,74.23
2023-02-13T08:38:09.060Z,74.14
2023-02-13T08:40:37.405Z,75.06
2023-02-13T08:43:09.027Z,74.43
2023-02-13T08:45:38.069Z,74.21
2023-02-13T08:48:08.531Z,74.01
2023-02-13T08:50:37.400Z,74.04
2023-02-13T08:53:08.457Z,74.00
2023-02-13T08:55:36.839Z,73.91
2023-02-13T08:58:07.323Z,73.78
2023-02-13T09:00:35.707Z,74.04
2023-02-13T09:03:07.332Z,73.87
2023-02-13T09:05:36.198Z,74.12
2023-02-13T09:08:05.734Z,74.31
2023-02-13T09:10:35.867Z,74.35
2023-02-13T09:13:05.425Z,74.61
2023-02-13T09:15:34.493Z,74.46
2023-02-13T09:18:04.351Z,74.61
2023-02-13T09:20:34.733Z,74.65
2023-02-13T09:23:05.017Z,74.65
2023-02-13T09:25:35.277Z,74.66
2023-02-13T09:28:03.933Z,74.62
2023-02-13T09:30:32.778Z,74.37
2023-02-13T09:33:01.409Z,73.94
2023-02-13T09:35:30.878Z,74.23
2023-02-13T09:38:02.534Z,74.21
2023-02-13T09:40:36.540Z,74.41
2023-02-13T09:43:13.464Z,74.37
2023-02-13T09:45:44.485Z,74.25
2023-02-13T09:48:20.860Z,74.18
2023-02-13T09:50:49.284Z,73.89
2023-02-13T09:53:23.469Z,74.08
2023-02-13T09:55:59.473Z,74.10
2023-02-13T09:58:44.748Z,74.06
2023-02-13T10:01:21.547Z,73.95
2023-02-13T10:04:01.504Z,74.11
2023-02-13T10:06:33.596Z,74.23
2023-02-13T10:09:12.016Z,74.36
2023-02-13T10:12:02.327Z,74.26
2023-02-13T10:14:39.522Z,74.37
2023-02-13T10:17:14.823Z,74.28
2023-02-13T10:19:48.042Z,74.04
2023-02-13T10:22:19.103Z,74.04
2023-02-13T10:24:51.759Z,73.85
2023-02-13T10:27:23.956Z,73.98
2023-02-13T10:30:09.621Z,74.03
2023-02-13T10:32:46.561Z,74.12
2023-02-13T10:35:23.462Z,74.12
2023-02-13T10:37:56.548Z,74.34
2023-02-13T10:40:32.817Z,74.30
2023-02-13T10:43:09.650Z,74.38
2023-02-13T10:46:04.340Z,74.61
2023-02-13T10:48:46.935Z,74.86
2023-02-13T10:51:25.726Z,74.61
2023-02-13T10:54:14.030Z,74.60
2023-02-13T10:56:48.183Z,74.65
2023-02-13T10:59:43.159Z,74.76
2023-02-13T11:02:24.736Z,74.76
2023-02-13T11:04:58.903Z,74.61
2023-02-13T11:07:30.141Z,74.68
2023-02-13T11:10:04.402Z,74.81
2023-02-13T11:12:35.474Z,75.01
2023-02-13T11:15:07.257Z,74.76
2023-02-13T11:17:43.657Z,74.60
2023-02-13T11:20:30.969Z,74.73
2023-02-13T11:23:19.967Z,74.76
2023-02-13T11:25:58.260Z,74.88
2023-02-13T11:28:30.156Z,74.92
2023-02-13T11:31:14.086Z,74.96
2023-02-13T11:33:43.939Z,74.83
2023-02-13T11:36:17.085Z,74.92
2023-02-13T11:38:46.691Z,74.62
2023-02-13T11:41:20.287Z,74.62
2023-02-13T11:43:52.226Z,74.70
2023-02-13T11:46:23.460Z,74.29
2023-02-13T11:49:02.328Z,74.01
2023-02-13T11:51:40.384Z,73.99
2023-02-13T11:54:24.474Z,73.86
2023-02-13T11:57:04.712Z,74.00
2023-02-13T11:59:42.403Z,73.76
2023-02-13T12:02:16.768Z,73.68
2023-02-13T12:04:48.485Z,73.62
2023-02-13T12:07:21.886Z,73.63
2023-02-13T12:09:55.073Z,73.63
2023-02-13T12:12:30.483Z,73.32
2023-02-13T12:15:01.998Z,73.33
2023-02-13T12:17:32.841Z,73.11
2023-02-13T12:20:02.614Z,72.99
2023-02-13T12:22:35.037Z,73.00
2023-02-13T12:25:33.694Z,73.05
2023-02-13T12:28:12.898Z,72.94
2023-02-13T12:30:57.987Z,72.89
2023-02-13T12:33:40.966Z,72.73
2023-02-13T12:36:20.007Z,72.76
2023-02-13T12:39:06.565Z,72.28
2023-02-13T12:41:42.268Z,72.17
2023-02-13T12:44:29.451Z,72.21
2023-02-13T12:47:08.937Z,71.94
2023-02-13T12:50:24.663Z,71.91
2023-02-13T12:53:12.522Z,71.53
2023-02-13T12:56:14.275Z,71.83
2023-02-13T12:59:04.661Z,71.77
2023-02-13T13:02:03.801Z,71.80
2023-02-13T13:04:48.162Z,71.30
2023-02-13T13:07:32.299Z,71.32
2023-02-13T13:10:21.723Z,71.02
2023-02-13T13:12:59.288Z,70.83
2023-02-13T13:15:37.582Z,70.90
2023-02-13T13:18:29.613Z,71.02
2023-02-13T13:21:12.500Z,70.96
2023-02-13T13:23:47.906Z,70.62
2023-02-13T13:26:25.952Z,70.45
2023-02-13T13:28:57.706Z,70.62
2023-02-13T13:31:28.757Z,70.39
2023-02-13T13:34:03.891Z,70.28
2023-02-13T13:36:41.134Z,69.84
2023-02-13T13:39:21.803Z,69.86
2023-02-13T13:42:02.862Z,69.44
2023-02-13T13:44:49.425Z,69.48
2023-02-13T13:47:28.171Z,69.36
2023-02-13T13:49:59.568Z,69.34
2023-02-13T13:52:30.099Z,69.13
2023-02-13T13:55:02.824Z,69.25
2023-02-13T13:58:01.600Z,69.25
2023-02-13T14:00:31.526Z,68.97
2023-02-13T14:03:23.852Z,69.13
2023-02-13T14:06:00.210Z,69.17
2023-02-13T14:08:55.251Z,69.30
2023-02-13T14:11:32.954Z,69.35
2023-02-13T14:14:04.710Z,69.06
2023-02-13T14:16:42.594Z,68.97
2023-02-13T14:19:30.652Z,68.91
2023-02-13T14:22:35.393Z,69.05
2023-02-13T14:25:06.433Z,68.67
2023-02-13T14:27:38.243Z,68.70
2023-02-13T14:30:28.331Z,68.33
2023-02-13T14:32:57.600Z,68.15
2023-02-13T14:35:28.861Z,68.35
2023-02-13T14:38:00.333Z,68.14
2023-02-13T14:40:45.224Z,68.11
2023-02-13T14:43:28.828Z,67.81
2023-02-13T14:46:05.611Z,67.97
2023-02-13T14:48:40.494Z,67.82
2023-02-13T14:51:17.301Z,67.86
2023-02-13T14:53:53.064Z,67.98
2023-02-13T14:56:23.629Z,68.23
2023-02-13T14:58:56.417Z,68.32
2023-02-13T15:01:34.658Z,68.38
2023-02-13T15:04:12.009Z,68.37
2023-02-13T15:06:42.868Z,68.46
2023-02-13T15:09:22.829Z,68.36
2023-02-13T15:11:51.492Z,68.37
2023-02-13T15:14:22.712Z,68.21
2023-02-13T15:16:58.655Z,68.09
2023-02-13T15:19:28.363Z,68.29
2023-02-13T15:22:00.222Z,68.30
2023-02-13T15:24:37.678Z,68.26
2023-02-13T15:27:09.040Z,68.24
2023-02-13T15:29:49.538Z,68.29
2023-02-13T15:32:28.728Z,68.32
2023-02-13T15:34:57.678Z,68.56
2023-02-13T15:37:30.079Z,68.57
2023-02-13T15:40:17.487Z,68.69
2023-02-13T15:42:46.536Z,68.73
2023-02-13T15:45:19.047Z,69.00
2023-02-13T15:47:49.691Z,68.89
2023-02-13T15:50:20.524Z,68.72
2023-02-13T15:52:49.867Z,68.76
2023-02-13T15:55:24.928Z,68.77
2023-02-13T15:57:56.397Z,68.76
2023-02-13T16:00:27.867Z,68.66
2023-02-13T16:02:59.841Z,68.82
2023-02-13T16:05:39.996Z,68.66
2023-02-13T16:08:30.524Z,68.64
2023-02-13T16:11:27.254Z,68.68
2023-02-13T16:14:06.469Z,68.73
2023-02-13T16:16:44.888Z,68.66
2023-02-13T16:19:43.370Z,68.91
2023-02-13T16:22:24.508Z,68.87
2023-02-13T16:24:55.344Z,68.80
2023-02-13T16:27:27.908Z,68.83
2023-02-13T16:30:01.196Z,68.91
2023-02-13T16:32:32.149Z,68.84
2023-02-13T16:35:27.020Z,68.70
2023-02-13T16:37:58.814Z,68.77
2023-02-13T16:40:42.356Z,68.87
2023-02-13T16:43:36.576Z,68.82
2023-02-13T16:46:22.461Z,68.81
2023-02-13T16:49:03.187Z,68.64
2023-02-13T16:51:37.654Z,68.78
2023-02-13T16:54:15.902Z,68.89
2023-02-13T16:56:48.142Z,68.97
2023-02-13T16:59:50.170Z,68.97
2023-02-13T17:02:23.758Z,69.05
2023-02-13T17:04:55.584Z,69.08
2023-02-13T17:07:29.029Z,69.08
2023-02-13T17:10:02.089Z,69.15
2023-02-13T17:12:32.377Z,69.08
2023-02-13T17:15:03.482Z,69.19
2023-02-13T17:17:33.437Z,69.16
2023-02-13T17:20:04.349Z,69.14
2023-02-13T17:22:37.042Z,69.10
2023-02-13T17:25:08.451Z,68.91
2023-02-13T17:27:37.317Z,69.08
2023-02-13T17:30:07.103Z,69.20
2023-02-13T17:32:35.489Z,69.27
2023-02-13T17:35:04.377Z,69.19
2023-02-13T17:37:34.602Z,69.12
2023-02-13T17:40:05.442Z,69.05
2023-02-13T17:42:34.098Z,68.87
2023-02-13T17:45:02.537Z,69.13
2023-02-13T17:47:31.958Z,69.15
2023-02-13T17:50:09.439Z,69.22
2023-02-13T17:52:41.556Z,69.22
2023-02-13T17:55:18.123Z,69.15
2023-02-13T17:57:47.589Z,69.09
2023-02-13T18:00:16.547Z,69.09
2023-02-13T18:02:47.838Z,69.00
2023-02-13T18:05:16.903Z,68.82
2023-02-13T18:07:47.014Z,68.80
2023-02-13T18:13:07.452Z,68.81
2023-02-13T18:15:40.214Z,68.71
2023-02-13T18:18:09.013Z,68.84
2023-02-13T18:20:37.582Z,68.68
2023-02-13T18:23:07.027Z,68.64
2023-02-13T18:25:37.762Z,68.54
2023-02-13T18:28:06.211Z,68.29
2023-02-13T18:30:34.568Z,68.46
2023-02-13T18:33:05.473Z,68.55
2023-02-13T18:35:36.491Z,68.39
2023-02-13T18:38:05.706Z,68.38
2023-02-13T18:40:34.342Z,68.43
2023-02-13T18:43:04.579Z,68.47
2023-02-13T18:45:33.648Z,68.42
2023-02-13T18:48:02.917Z,68.48
2023-02-13T18:50:34.112Z,68.57
2023-02-13T18:53:02.449Z,68.52
2023-02-13T18:55:31.616Z,68.66
2023-02-13T18:58:00.770Z,68.50
2023-02-13T19:00:30.801Z,68.45
2023-02-13T19:03:00.740Z,68.44
2023-02-13T19:05:29.064Z,68.56
2023-02-13T19:07:59.762Z,68.33
2023-02-13T19:10:29.130Z,68.50
2023-02-13T19:12:57.584Z,68.64
2023-02-13T19:15:25.981Z,68.71
2023-02-13T19:17:57.666Z,68.76
2023-02-13T19:20:26.282Z,68.70
2023-02-13T19:22:55.093Z,68.78
2023-02-13T19:25:24.021Z,68.92
2023-02-13T19:27:52.387Z,68.87
2023-02-13T19:30:21.086Z,68.78
2023-02-13T19:32:49.997Z,68.67
2023-02-13T19:35:19.896Z,68.79
2023-02-13T19:37:48.251Z,68.74
2023-02-13T19:40:16.782Z,68.79
2023-02-13T19:42:45.092Z,68.74
2023-02-13T19:45:13.475Z,68.84
2023-02-13T19:47:41.908Z,68.78
2023-02-13T19:50:11.164Z,68.92
2023-02-13T19:52:43.678Z,69.23
2023-02-13T19:55:11.985Z,69.28
2023-02-13T19:57:40.745Z,69.34
2023-02-13T20:00:10.248Z,69.27
2023-02-13T20:02:43.289Z,69.48
2023-02-13T20:05:11.866Z,69.70
2023-02-13T20:07:41.092Z,69.71
2023-02-13T20:10:11.653Z,69.73
2023-02-13T20:12:40.530Z,69.68
2023-02-13T20:15:10.116Z,69.85
2023-02-13T20:17:38.832Z,69.96
2023-02-13T20:20:09.314Z,69.88
2023-02-13T20:22:37.645Z,69.96
2023-02-13T20:25:07.241Z,69.96
2023-02-13T20:27:42.036Z,70.10
2023-02-13T20:30:15.649Z,70.23
2023-02-13T20:32:44.330Z,70.53
2023-02-13T20:35:14.876Z,70.58
2023-02-13T20:37:43.309Z,70.59
2023-02-13T20:40:13.342Z,70.68
2023-02-13T20:42:43.076Z,70.73
2023-02-13T20:45:12.235Z,70.83
2023-02-13T20:47:42.805Z,71.06
2023-02-13T20:50:12.344Z,71.24
2023-02-13T20:52:41.212Z,70.91
2023-02-13T20:55:10.115Z,71.21
2023-02-13T20:57:38.428Z,71.38
2023-02-13T21:00:13.608Z,71.44
2023-02-13T21:02:42.018Z,71.67
2023-02-13T21:05:10.926Z,72.02
2023-02-13T21:07:39.427Z,72.15
2023-02-13T21:10:08.476Z,72.47
2023-02-13T21:12:36.890Z,72.66
2023-02-13T21:15:05.544Z,72.91
2023-02-13T21:17:35.684Z,73.23
2023-02-13T21:20:05.593Z,73.38
2023-02-13T21:22:35.330Z,73.88
2023-02-13T21:25:04.154Z,73.87
2023-02-13T21:27:32.892Z,74.08
2023-02-13T21:30:01.789Z,74.32
2023-02-13T21:32:30.285Z,74.46
2023-02-13T21:35:01.053Z,74.58
2023-02-13T21:37:30.542Z,74.73
2023-02-13T21:39:59.805Z,74.90
2023-02-13T21:42:28.565Z,74.99
2023-02-13T21:44:56.877Z,75.09
2023-02-13T21:47:26.314Z,75.31
2023-02-13T21:49:54.667Z,75.18
2023-02-13T21:52:31.849Z,75.38
2023-02-13T21:55:00.207Z,75.25
2023-02-13T21:57:29.409Z,75.34
2023-02-13T21:59:58.109Z,75.48
2023-02-13T22:02:28.840Z,75.65
2023-02-13T22:04:57.231Z,75.84
2023-02-13T22:07:27.501Z,75.89
2023-02-13T22:09:56.357Z,75.89
2023-02-13T22:12:24.862Z,75.76
2023-02-13T22:14:56.022Z,75.85
2023-02-13T22:17:24.403Z,75.76
2023-02-13T22:19:53.143Z,75.67
2023-02-13T22:22:21.499Z,75.68
2023-02-13T22:24:52.789Z,75.69
2023-02-13T22:27:21.140Z,75.50
2023-02-13T22:29:52.400Z,75.43
2023-02-13T22:32:21.357Z,75.59
2023-02-13T22:34:50.195Z,75.45
2023-02-13T22:37:18.556Z,75.60
2023-02-13T22:39:46.959Z,75.84
2023-02-13T22:42:16.695Z,75.67
2023-02-13T22:44:45.655Z,75.55
2023-02-13T22:47:14.008Z,75.63
2023-02-13T22:49:42.398Z,75.89
2023-02-13T22:52:11.483Z,75.89
2023-02-13T22:54:40.667Z,75.91
2023-02-13T22:57:09.074Z,75.85
2023-02-13T22:59:40.252Z,75.72
2023-02-13T23:02:08.728Z,75.81
2023-02-13T23:04:37.178Z,75.89
2023-02-13T23:07:05.608Z,75.73
2023-02-13T23:09:34.830Z,75.85
2023-02-13T23:12:20.937Z,75.85
2023-02-13T23:14:51.069Z,75.80
2023-02-13T23:17:37.194Z,76.04
2023-02-13T23:20:07.729Z,76.05
2023-02-13T23:22:36.420Z,76.04
2023-02-13T23:25:06.190Z,76.01
2023-02-13T23:27:36.335Z,76.28
2023-02-13T23:30:08.309Z,76.09
2023-02-13T23:32:37.277Z,76.32
2023-02-13T23:35:07.381Z,76.15
2023-02-13T23:37:36.272Z,76.17
2023-02-13T23:40:05.242Z,76.21
2023-02-13T23:42:35.053Z,76.36
2023-02-13T23:45:03.436Z,76.34
2023-02-13T23:47:33.572Z,76.47
2023-02-13T23:50:01.895Z,76.27
2023-02-13T23:52:31.067Z,76.30
2023-02-13T23:54:59.968Z,76.55
2023-02-13T23:57:28.356Z,76.56
2023-02-13T23:59:57.482Z,76.73
